sensor_id;sensor_type;location;lat;lon;timestamp;P1;durP1;ratioP1;P2;durP2;ratioP2
3487;SDS011;38546;48.170;11.724;2023-05-21T00:00:38;13.60;;;9.50;;
3487;SDS011;38546;48.170;11.724;2023-05-21T00:03:28;16.23;;;10.20;;
3487;SDS011;38546;48.170;11.724;2023-05-21T00:06:18;11.50;;;8.70;;
3487;SDS011;38546;48.170;11.724;2023-05-21T00:09:08;14.30;;;9.60;;
3487;SDS011;38546;48.170;11.724;2023-05-21T00:12:00;12.70;;;9.63;;
3487;SDS011;38546;48.170;11.724;2023-05-21T00:14:49;13.00;;;9.60;;
3487;SDS011;38546;48.170;11.724;2023-05-21T00:17:38;14.73;;;9.40;;
3487;SDS011;38546;48.170;11.724;2023-05-21T00:20:27;14.30;;;8.60;;
3487;SDS011;38546;48.170;11.724;2023-05-21T00:23:19;12.63;;;9.07;;
3487;SDS011;38546;48.170;11.724;2023-05-21T00:26:09;14.70;;;8.90;;
3487;SDS011;38546;48.170;11.724;2023-05-21T00:28:59;12.57;;;8.67;;
3487;SDS011;38546;48.170;11.724;2023-05-21T00:31:48;11.77;;;8.90;;
3487;SDS011;38546;48.170;11.724;2023-05-21T00:34:38;12.27;;;9.67;;
3487;SDS011;38546;48.170;11.724;2023-05-21T00:37:28;12.17;;;9.30;;
3487;SDS011;38546;48.170;11.724;2023-05-21T00:40:20;12.73;;;8.77;;
3487;SDS011;38546;48.170;11.724;2023-05-21T00:43:10;12.37;;;9.30;;
3487;SDS011;38546;48.170;11.724;2023-05-21T00:46:00;11.70;;;9.13;;
3487;SDS011;38546;48.170;11.724;2023-05-21T00:48:50;13.43;;;9.40;;
3487;SDS011;38546;48.170;11.724;2023-05-21T00:51:40;10.90;;;8.80;;
3487;SDS011;38546;48.170;11.724;2023-05-21T00:54:29;10.50;;;8.60;;
3487;SDS011;38546;48.170;11.724;2023-05-21T00:57:21;14.33;;;9.37;;
3487;SDS011;38546;48.170;11.724;2023-05-21T01:00:13;12.33;;;9.03;;
3487;SDS011;38546;48.170;11.724;2023-05-21T01:03:03;13.97;;;9.00;;
3487;SDS011;38546;48.170;11.724;2023-05-21T01:05:54;12.20;;;8.80;;
3487;SDS011;38546;48.170;11.724;2023-05-21T01:08:47;11.43;;;8.13;;
3487;SDS011;38546;48.170;11.724;2023-05-21T01:11:56;12.40;;;8.27;;
3487;SDS011;38546;48.170;11.724;2023-05-21T01:14:48;11.50;;;9.10;;
3487;SDS011;38546;48.170;11.724;2023-05-21T01:17:38;17.03;;;9.07;;
3487;SDS011;38546;48.170;11.724;2023-05-21T01:20:28;10.90;;;8.17;;
3487;SDS011;38546;48.170;11.724;2023-05-21T01:23:19;10.07;;;7.63;;
3487;SDS011;38546;48.170;11.724;2023-05-21T01:26:09;12.47;;;8.80;;
3487;SDS011;38546;48.170;11.724;2023-05-21T01:29:00;12.10;;;9.13;;
3487;SDS011;38546;48.170;11.724;2023-05-21T01:33:24;11.47;;;8.73;;
3487;SDS011;38546;48.170;11.724;2023-05-21T01:36:22;11.97;;;8.57;;
3487;SDS011;38546;48.170;11.724;2023-05-21T01:39:18;13.93;;;8.63;;
3487;SDS011;38546;48.170;11.724;2023-05-21T01:42:22;12.07;;;8.70;;
3487;SDS011;38546;48.170;11.724;2023-05-21T01:45:13;13.03;;;9.53;;
3487;SDS011;38546;48.170;11.724;2023-05-21T01:48:04;11.97;;;9.17;;
3487;SDS011;38546;48.170;11.724;2023-05-21T01:50:56;15.90;;;8.47;;
3487;SDS011;38546;48.170;11.724;2023-05-21T01:53:49;14.30;;;9.70;;
3487;SDS011;38546;48.170;11.724;2023-05-21T01:56:39;13.30;;;8.23;;
3487;SDS011;38546;48.170;11.724;2023-05-21T01:59:28;9.80;;;8.37;;
3487;SDS011;38546;48.170;11.724;2023-05-21T02:02:18;19.93;;;9.07;;
3487;SDS011;38546;48.170;11.724;2023-05-21T02:05:08;12.60;;;8.67;;
3487;SDS011;38546;48.170;11.724;2023-05-21T02:07:57;13.03;;;9.50;;
3487;SDS011;38546;48.170;11.724;2023-05-21T02:10:48;10.97;;;8.40;;
3487;SDS011;38546;48.170;11.724;2023-05-21T02:13:37;13.17;;;8.60;;
3487;SDS011;38546;48.170;11.724;2023-05-21T02:16:30;10.83;;;8.60;;
3487;SDS011;38546;48.170;11.724;2023-05-21T02:19:19;9.43;;;7.77;;
3487;SDS011;38546;48.170;11.724;2023-05-21T02:22:09;13.43;;;9.23;;
3487;SDS011;38546;48.170;11.724;2023-05-21T02:24:59;13.03;;;8.77;;
3487;SDS011;38546;48.170;11.724;2023-05-21T02:27:49;15.30;;;9.23;;
3487;SDS011;38546;48.170;11.724;2023-05-21T02:30:41;9.63;;;8.20;;
3487;SDS011;38546;48.170;11.724;2023-05-21T02:33:30;12.40;;;9.00;;
3487;SDS011;38546;48.170;11.724;2023-05-21T02:36:20;14.13;;;8.80;;
3487;SDS011;38546;48.170;11.724;2023-05-21T02:39:09;10.30;;;8.27;;
3487;SDS011;38546;48.170;11.724;2023-05-21T02:41:59;13.70;;;9.53;;
3487;SDS011;38546;48.170;11.724;2023-05-21T02:44:49;16.60;;;9.00;;
3487;SDS011;38546;48.170;11.724;2023-05-21T02:47:38;9.80;;;7.97;;
3487;SDS011;38546;48.170;11.724;2023-05-21T02:50:28;14.20;;;9.40;;
3487;SDS011;38546;48.170;11.724;2023-05-21T02:53:17;11.03;;;7.63;;
3487;SDS011;38546;48.170;11.724;2023-05-21T02:56:06;11.00;;;8.23;;
3487;SDS011;38546;48.170;11.724;2023-05-21T02:58:55;14.27;;;8.87;;
3487;SDS011;38546;48.170;11.724;2023-05-21T03:01:44;11.10;;;8.33;;
3487;SDS011;38546;48.170;11.724;2023-05-21T03:04:33;13.13;;;9.30;;
3487;SDS011;38546;48.170;11.724;2023-05-21T03:07:26;13.37;;;10.07;;
3487;SDS011;38546;48.170;11.724;2023-05-21T03:10:15;12.00;;;7.70;;
3487;SDS011;38546;48.170;11.724;2023-05-21T03:13:04;13.57;;;9.30;;
3487;SDS011;38546;48.170;11.724;2023-05-21T03:15:54;12.07;;;8.23;;
3487;SDS011;38546;48.170;11.724;2023-05-21T03:18:44;12.83;;;9.07;;
3487;SDS011;38546;48.170;11.724;2023-05-21T03:21:33;12.10;;;8.47;;
3487;SDS011;38546;48.170;11.724;2023-05-21T03:24:22;13.03;;;8.60;;
3487;SDS011;38546;48.170;11.724;2023-05-21T03:27:12;12.90;;;9.47;;
3487;SDS011;38546;48.170;11.724;2023-05-21T03:30:02;16.53;;;8.30;;
3487;SDS011;38546;48.170;11.724;2023-05-21T03:32:52;11.77;;;8.63;;
3487;SDS011;38546;48.170;11.724;2023-05-21T03:35:41;13.00;;;8.67;;
3487;SDS011;38546;48.170;11.724;2023-05-21T03:38:31;11.10;;;8.70;;
3487;SDS011;38546;48.170;11.724;2023-05-21T03:41:20;12.90;;;8.50;;
3487;SDS011;38546;48.170;11.724;2023-05-21T03:44:10;11.60;;;8.13;;
3487;SDS011;38546;48.170;11.724;2023-05-21T03:46:59;10.90;;;7.83;;
3487;SDS011;38546;48.170;11.724;2023-05-21T03:49:49;11.60;;;8.23;;
3487;SDS011;38546;48.170;11.724;2023-05-21T03:52:38;11.47;;;8.70;;
3487;SDS011;38546;48.170;11.724;2023-05-21T03:55:28;14.83;;;8.67;;
3487;SDS011;38546;48.170;11.724;2023-05-21T03:58:17;13.67;;;8.97;;
3487;SDS011;38546;48.170;11.724;2023-05-21T04:01:06;10.67;;;7.57;;
3487;SDS011;38546;48.170;11.724;2023-05-21T04:03:56;13.80;;;8.33;;
3487;SDS011;38546;48.170;11.724;2023-05-21T04:06:45;11.30;;;8.23;;
3487;SDS011;38546;48.170;11.724;2023-05-21T04:09:37;11.53;;;8.80;;
3487;SDS011;38546;48.170;11.724;2023-05-21T04:12:26;11.63;;;8.47;;
3487;SDS011;38546;48.170;11.724;2023-05-21T04:15:16;13.33;;;8.63;;
3487;SDS011;38546;48.170;11.724;2023-05-21T04:18:06;14.63;;;9.90;;
3487;SDS011;38546;48.170;11.724;2023-05-21T04:20:55;13.87;;;8.93;;
3487;SDS011;38546;48.170;11.724;2023-05-21T04:23:46;10.83;;;8.17;;
3487;SDS011;38546;48.170;11.724;2023-05-21T04:26:35;9.67;;;7.60;;
3487;SDS011;38546;48.170;11.724;2023-05-21T04:29:26;13.40;;;9.20;;
3487;SDS011;38546;48.170;11.724;2023-05-21T04:32:15;15.10;;;8.50;;
3487;SDS011;38546;48.170;11.724;2023-05-21T04:35:06;12.30;;;9.00;;
3487;SDS011;38546;48.170;11.724;2023-05-21T04:37:56;10.27;;;7.87;;
3487;SDS011;38546;48.170;11.724;2023-05-21T04:40:47;12.40;;;8.97;;
3487;SDS011;38546;48.170;11.724;2023-05-21T04:43:41;12.07;;;7.73;;
3487;SDS011;38546;48.170;11.724;2023-05-21T04:46:31;12.67;;;8.53;;
3487;SDS011;38546;48.170;11.724;2023-05-21T04:49:22;17.07;;;8.07;;
3487;SDS011;38546;48.170;11.724;2023-05-21T04:52:11;12.67;;;8.10;;
3487;SDS011;38546;48.170;11.724;2023-05-21T04:55:01;11.80;;;8.93;;
3487;SDS011;38546;48.170;11.724;2023-05-21T04:57:51;12.20;;;8.17;;
3487;SDS011;38546;48.170;11.724;2023-05-21T05:00:41;14.33;;;8.70;;
3487;SDS011;38546;48.170;11.724;2023-05-21T05:03:33;9.63;;;7.50;;
3487;SDS011;38546;48.170;11.724;2023-05-21T05:06:23;11.80;;;8.07;;
3487;SDS011;38546;48.170;11.724;2023-05-21T05:09:13;10.27;;;8.23;;
3487;SDS011;38546;48.170;11.724;2023-05-21T05:12:03;10.27;;;7.33;;
3487;SDS011;38546;48.170;11.724;2023-05-21T05:14:54;12.80;;;8.13;;
3487;SDS011;38546;48.170;11.724;2023-05-21T05:17:43;17.63;;;8.30;;
3487;SDS011;38546;48.170;11.724;2023-05-21T05:20:35;12.00;;;8.50;;
3487;SDS011;38546;48.170;11.724;2023-05-21T05:23:24;14.30;;;8.23;;
3487;SDS011;38546;48.170;11.724;2023-05-21T05:26:14;13.03;;;8.17;;
3487;SDS011;38546;48.170;11.724;2023-05-21T05:29:03;11.33;;;8.40;;
3487;SDS011;38546;48.170;11.724;2023-05-21T05:31:52;9.90;;;6.93;;
3487;SDS011;38546;48.170;11.724;2023-05-21T05:34:45;9.07;;;7.37;;
3487;SDS011;38546;48.170;11.724;2023-05-21T05:37:34;10.03;;;8.30;;
3487;SDS011;38546;48.170;11.724;2023-05-21T05:40:23;9.63;;;8.03;;
3487;SDS011;38546;48.170;11.724;2023-05-21T05:43:13;9.60;;;6.87;;
3487;SDS011;38546;48.170;11.724;2023-05-21T05:46:03;9.03;;;6.50;;
3487;SDS011;38546;48.170;11.724;2023-05-21T05:48:52;9.73;;;7.20;;
3487;SDS011;38546;48.170;11.724;2023-05-21T05:51:42;10.37;;;7.27;;
3487;SDS011;38546;48.170;11.724;2023-05-21T05:54:32;8.60;;;6.33;;
3487;SDS011;38546;48.170;11.724;2023-05-21T05:57:21;9.00;;;7.27;;
3487;SDS011;38546;48.170;11.724;2023-05-21T06:00:11;7.90;;;6.50;;
3487;SDS011;38546;48.170;11.724;2023-05-21T06:03:01;10.70;;;6.80;;
3487;SDS011;38546;48.170;11.724;2023-05-21T06:05:51;10.83;;;7.33;;
3487;SDS011;38546;48.170;11.724;2023-05-21T06:08:40;9.73;;;7.80;;
3487;SDS011;38546;48.170;11.724;2023-05-21T06:11:29;8.50;;;7.40;;
3487;SDS011;38546;48.170;11.724;2023-05-21T06:14:18;9.47;;;7.37;;
3487;SDS011;38546;48.170;11.724;2023-05-21T06:17:07;9.07;;;6.87;;
3487;SDS011;38546;48.170;11.724;2023-05-21T06:19:56;10.10;;;7.17;;
3487;SDS011;38546;48.170;11.724;2023-05-21T06:22:45;10.50;;;7.60;;
3487;SDS011;38546;48.170;11.724;2023-05-21T06:25:34;9.90;;;7.43;;
3487;SDS011;38546;48.170;11.724;2023-05-21T06:28:23;11.07;;;7.90;;
3487;SDS011;38546;48.170;11.724;2023-05-21T06:31:13;8.10;;;6.40;;
3487;SDS011;38546;48.170;11.724;2023-05-21T06:34:02;10.50;;;8.00;;
3487;SDS011;38546;48.170;11.724;2023-05-21T06:36:51;10.80;;;7.50;;
3487;SDS011;38546;48.170;11.724;2023-05-21T06:39:40;10.23;;;8.37;;
3487;SDS011;38546;48.170;11.724;2023-05-21T06:42:29;11.90;;;6.93;;
3487;SDS011;38546;48.170;11.724;2023-05-21T06:45:18;8.63;;;7.03;;
3487;SDS011;38546;48.170;11.724;2023-05-21T06:48:07;9.43;;;7.57;;
3487;SDS011;38546;48.170;11.724;2023-05-21T06:50:56;8.20;;;7.37;;
3487;SDS011;38546;48.170;11.724;2023-05-21T06:53:46;9.80;;;7.10;;
3487;SDS011;38546;48.170;11.724;2023-05-21T06:56:35;10.50;;;7.60;;
3487;SDS011;38546;48.170;11.724;2023-05-21T06:59:24;9.70;;;8.17;;
3487;SDS011;38546;48.170;11.724;2023-05-21T07:02:13;9.50;;;7.23;;
3487;SDS011;38546;48.170;11.724;2023-05-21T07:05:04;8.53;;;7.53;;
3487;SDS011;38546;48.170;11.724;2023-05-21T07:07:53;12.03;;;7.73;;
3487;SDS011;38546;48.170;11.724;2023-05-21T07:10:43;10.27;;;7.60;;
3487;SDS011;38546;48.170;11.724;2023-05-21T07:13:32;10.83;;;8.07;;
3487;SDS011;38546;48.170;11.724;2023-05-21T07:16:22;11.53;;;8.30;;
3487;SDS011;38546;48.170;11.724;2023-05-21T07:19:11;11.47;;;7.77;;
3487;SDS011;38546;48.170;11.724;2023-05-21T07:22:02;9.97;;;7.30;;
3487;SDS011;38546;48.170;11.724;2023-05-21T07:24:53;10.33;;;7.80;;
3487;SDS011;38546;48.170;11.724;2023-05-21T07:27:42;9.77;;;7.90;;
3487;SDS011;38546;48.170;11.724;2023-05-21T07:30:31;9.03;;;8.00;;
3487;SDS011;38546;48.170;11.724;2023-05-21T07:33:20;8.50;;;7.10;;
3487;SDS011;38546;48.170;11.724;2023-05-21T07:36:10;8.30;;;7.43;;
3487;SDS011;38546;48.170;11.724;2023-05-21T07:38:59;13.63;;;7.63;;
3487;SDS011;38546;48.170;11.724;2023-05-21T07:41:48;9.60;;;8.00;;
3487;SDS011;38546;48.170;11.724;2023-05-21T07:44:37;9.13;;;7.50;;
3487;SDS011;38546;48.170;11.724;2023-05-21T07:47:26;8.40;;;6.90;;
3487;SDS011;38546;48.170;11.724;2023-05-21T07:50:15;8.20;;;7.23;;
3487;SDS011;38546;48.170;11.724;2023-05-21T07:53:05;8.03;;;7.03;;
3487;SDS011;38546;48.170;11.724;2023-05-21T07:55:54;8.10;;;6.37;;
3487;SDS011;38546;48.170;11.724;2023-05-21T07:58:43;9.50;;;7.70;;
3487;SDS011;38546;48.170;11.724;2023-05-21T08:01:33;10.20;;;7.53;;
3487;SDS011;38546;48.170;11.724;2023-05-21T08:04:24;8.87;;;7.47;;
3487;SDS011;38546;48.170;11.724;2023-05-21T08:07:14;9.53;;;7.27;;
3487;SDS011;38546;48.170;11.724;2023-05-21T08:10:07;8.30;;;6.80;;
3487;SDS011;38546;48.170;11.724;2023-05-21T08:12:57;8.83;;;7.93;;
3487;SDS011;38546;48.170;11.724;2023-05-21T08:15:46;12.70;;;7.90;;
3487;SDS011;38546;48.170;11.724;2023-05-21T08:18:36;8.33;;;7.40;;
3487;SDS011;38546;48.170;11.724;2023-05-21T08:21:26;13.60;;;8.23;;
3487;SDS011;38546;48.170;11.724;2023-05-21T08:24:15;8.93;;;7.10;;
3487;SDS011;38546;48.170;11.724;2023-05-21T08:27:05;8.87;;;7.40;;
3487;SDS011;38546;48.170;11.724;2023-05-21T08:29:55;9.30;;;7.93;;
3487;SDS011;38546;48.170;11.724;2023-05-21T08:32:44;8.33;;;7.43;;
3487;SDS011;38546;48.170;11.724;2023-05-21T08:35:33;9.60;;;7.63;;
3487;SDS011;38546;48.170;11.724;2023-05-21T08:38:23;10.77;;;8.13;;
3487;SDS011;38546;48.170;11.724;2023-05-21T08:41:12;8.23;;;7.30;;
3487;SDS011;38546;48.170;11.724;2023-05-21T08:44:04;8.53;;;6.63;;
3487;SDS011;38546;48.170;11.724;2023-05-21T08:46:59;8.07;;;7.27;;
3487;SDS011;38546;48.170;11.724;2023-05-21T08:49:53;9.83;;;7.53;;
3487;SDS011;38546;48.170;11.724;2023-05-21T08:52:43;8.47;;;7.03;;
3487;SDS011;38546;48.170;11.724;2023-05-21T08:55:33;10.23;;;7.47;;
3487;SDS011;38546;48.170;11.724;2023-05-21T08:58:23;9.80;;;7.60;;
3487;SDS011;38546;48.170;11.724;2023-05-21T09:01:13;11.13;;;7.10;;
3487;SDS011;38546;48.170;11.724;2023-05-21T09:04:07;10.47;;;7.77;;
3487;SDS011;38546;48.170;11.724;2023-05-21T09:06:57;8.93;;;7.90;;
3487;SDS011;38546;48.170;11.724;2023-05-21T09:09:54;9.03;;;7.77;;
3487;SDS011;38546;48.170;11.724;2023-05-21T09:12:45;11.10;;;8.60;;
3487;SDS011;38546;48.170;11.724;2023-05-21T09:15:36;11.23;;;8.90;;
3487;SDS011;38546;48.170;11.724;2023-05-21T09:18:26;14.67;;;8.80;;
3487;SDS011;38546;48.170;11.724;2023-05-21T09:21:25;10.30;;;8.10;;
3487;SDS011;38546;48.170;11.724;2023-05-21T09:24:17;12.87;;;7.60;;
3487;SDS011;38546;48.170;11.724;2023-05-21T09:27:12;9.80;;;7.53;;
3487;SDS011;38546;48.170;11.724;2023-05-21T09:30:11;9.37;;;8.10;;
3487;SDS011;38546;48.170;11.724;2023-05-21T09:33:02;9.20;;;8.00;;
3487;SDS011;38546;48.170;11.724;2023-05-21T09:35:52;10.00;;;8.20;;
3487;SDS011;38546;48.170;11.724;2023-05-21T09:38:43;9.17;;;8.17;;
3487;SDS011;38546;48.170;11.724;2023-05-21T09:41:33;10.97;;;9.10;;
3487;SDS011;38546;48.170;11.724;2023-05-21T09:44:23;11.20;;;8.20;;
3487;SDS011;38546;48.170;11.724;2023-05-21T09:47:13;10.80;;;7.63;;
3487;SDS011;38546;48.170;11.724;2023-05-21T09:50:12;8.63;;;7.63;;
3487;SDS011;38546;48.170;11.724;2023-05-21T09:53:10;11.10;;;7.73;;
3487;SDS011;38546;48.170;11.724;2023-05-21T09:56:01;11.63;;;8.00;;
3487;SDS011;38546;48.170;11.724;2023-05-21T09:58:52;8.10;;;7.27;;
3487;SDS011;38546;48.170;11.724;2023-05-21T10:01:50;9.77;;;7.67;;
3487;SDS011;38546;48.170;11.724;2023-05-21T10:04:40;8.97;;;7.50;;
3487;SDS011;38546;48.170;11.724;2023-05-21T10:07:31;10.87;;;8.47;;
3487;SDS011;38546;48.170;11.724;2023-05-21T10:10:21;10.77;;;9.07;;
3487;SDS011;38546;48.170;11.724;2023-05-21T10:13:11;9.87;;;8.50;;
3487;SDS011;38546;48.170;11.724;2023-05-21T10:16:05;8.47;;;7.43;;
3487;SDS011;38546;48.170;11.724;2023-05-21T10:18:56;8.03;;;7.23;;
3487;SDS011;38546;48.170;11.724;2023-05-21T10:21:46;8.50;;;7.17;;
3487;SDS011;38546;48.170;11.724;2023-05-21T10:24:36;8.33;;;7.40;;
3487;SDS011;38546;48.170;11.724;2023-05-21T10:27:30;8.57;;;7.63;;
3487;SDS011;38546;48.170;11.724;2023-05-21T10:30:21;9.00;;;8.10;;
3487;SDS011;38546;48.170;11.724;2023-05-21T10:33:12;7.30;;;6.60;;
3487;SDS011;38546;48.170;11.724;2023-05-21T10:36:06;8.53;;;7.10;;
3487;SDS011;38546;48.170;11.724;2023-05-21T10:38:56;8.00;;;6.60;;
3487;SDS011;38546;48.170;11.724;2023-05-21T10:41:57;8.17;;;6.77;;
3487;SDS011;38546;48.170;11.724;2023-05-21T10:46:42;7.97;;;7.13;;
3487;SDS011;38546;48.170;11.724;2023-05-21T10:50:13;13.90;;;7.80;;
3487;SDS011;38546;48.170;11.724;2023-05-21T10:54:59;10.20;;;8.30;;
3487;SDS011;38546;48.170;11.724;2023-05-21T11:01:11;11.23;;;8.27;;
3487;SDS011;38546;48.170;11.724;2023-05-21T11:04:02;14.13;;;7.63;;
3487;SDS011;38546;48.170;11.724;2023-05-21T11:06:53;9.97;;;8.07;;
3487;SDS011;38546;48.170;11.724;2023-05-21T11:09:43;9.00;;;6.80;;
3487;SDS011;38546;48.170;11.724;2023-05-21T11:12:33;10.00;;;8.00;;
3487;SDS011;38546;48.170;11.724;2023-05-21T11:15:22;8.67;;;7.47;;
3487;SDS011;38546;48.170;11.724;2023-05-21T11:18:12;9.67;;;7.70;;
3487;SDS011;38546;48.170;11.724;2023-05-21T11:21:08;10.40;;;7.83;;
3487;SDS011;38546;48.170;11.724;2023-05-21T11:24:10;10.00;;;7.60;;
3487;SDS011;38546;48.170;11.724;2023-05-21T11:27:06;8.77;;;7.20;;
3487;SDS011;38546;48.170;11.724;2023-05-21T11:29:56;8.70;;;7.90;;
3487;SDS011;38546;48.170;11.724;2023-05-21T11:36:11;7.90;;;7.07;;
3487;SDS011;38546;48.170;11.724;2023-05-21T11:39:08;7.43;;;6.73;;
3487;SDS011;38546;48.170;11.724;2023-05-21T11:42:02;8.77;;;6.50;;
3487;SDS011;38546;48.170;11.724;2023-05-21T11:44:52;8.20;;;6.90;;
3487;SDS011;38546;48.170;11.724;2023-05-21T11:47:44;7.67;;;6.63;;
3487;SDS011;38546;48.170;11.724;2023-05-21T11:50:35;7.07;;;6.37;;
3487;SDS011;38546;48.170;11.724;2023-05-21T11:53:24;8.70;;;7.07;;
3487;SDS011;38546;48.170;11.724;2023-05-21T11:56:17;8.87;;;7.93;;
3487;SDS011;38546;48.170;11.724;2023-05-21T11:59:14;7.83;;;7.03;;
3487;SDS011;38546;48.170;11.724;2023-05-21T12:02:03;6.70;;;6.10;;
3487;SDS011;38546;48.170;11.724;2023-05-21T12:04:52;6.70;;;6.10;;
3487;SDS011;38546;48.170;11.724;2023-05-21T12:07:44;10.57;;;7.40;;
3487;SDS011;38546;48.170;11.724;2023-05-21T12:10:36;7.87;;;6.83;;
3487;SDS011;38546;48.170;11.724;2023-05-21T12:13:26;7.70;;;6.90;;
3487;SDS011;38546;48.170;11.724;2023-05-21T12:16:16;8.60;;;7.10;;
3487;SDS011;38546;48.170;11.724;2023-05-21T12:19:06;7.10;;;6.40;;
3487;SDS011;38546;48.170;11.724;2023-05-21T12:21:55;7.93;;;6.90;;
3487;SDS011;38546;48.170;11.724;2023-05-21T12:24:45;7.80;;;7.10;;
3487;SDS011;38546;48.170;11.724;2023-05-21T12:27:36;7.67;;;6.87;;
3487;SDS011;38546;48.170;11.724;2023-05-21T12:30:25;8.10;;;7.00;;
3487;SDS011;38546;48.170;11.724;2023-05-21T12:33:15;8.83;;;6.90;;
3487;SDS011;38546;48.170;11.724;2023-05-21T12:36:06;9.83;;;6.90;;
3487;SDS011;38546;48.170;11.724;2023-05-21T12:38:56;10.50;;;8.20;;
3487;SDS011;38546;48.170;11.724;2023-05-21T12:41:45;9.87;;;7.00;;
3487;SDS011;38546;48.170;11.724;2023-05-21T12:44:35;7.27;;;6.57;;
3487;SDS011;38546;48.170;11.724;2023-05-21T12:47:26;8.67;;;7.77;;
3487;SDS011;38546;48.170;11.724;2023-05-21T12:50:18;10.37;;;7.93;;
3487;SDS011;38546;48.170;11.724;2023-05-21T12:53:08;12.43;;;7.03;;
3487;SDS011;38546;48.170;11.724;2023-05-21T12:56:09;10.40;;;8.20;;
3487;SDS011;38546;48.170;11.724;2023-05-21T12:58:59;7.37;;;6.60;;
3487;SDS011;38546;48.170;11.724;2023-05-21T13:01:48;8.20;;;6.70;;
3487;SDS011;38546;48.170;11.724;2023-05-21T13:04:40;9.87;;;7.53;;
3487;SDS011;38546;48.170;11.724;2023-05-21T13:07:30;7.13;;;6.43;;
3487;SDS011;38546;48.170;11.724;2023-05-21T13:10:21;9.43;;;7.10;;
3487;SDS011;38546;48.170;11.724;2023-05-21T13:13:10;7.93;;;6.90;;
3487;SDS011;38546;48.170;11.724;2023-05-21T13:15:59;8.37;;;7.03;;
3487;SDS011;38546;48.170;11.724;2023-05-21T13:18:49;10.47;;;7.70;;
3487;SDS011;38546;48.170;11.724;2023-05-21T13:21:38;8.23;;;7.43;;
3487;SDS011;38546;48.170;11.724;2023-05-21T13:24:28;8.50;;;7.00;;
3487;SDS011;38546;48.170;11.724;2023-05-21T13:27:17;8.73;;;6.97;;
3487;SDS011;38546;48.170;11.724;2023-05-21T13:30:06;7.17;;;6.23;;
3487;SDS011;38546;48.170;11.724;2023-05-21T13:32:57;7.50;;;6.70;;
3487;SDS011;38546;48.170;11.724;2023-05-21T13:35:46;8.03;;;7.23;;
3487;SDS011;38546;48.170;11.724;2023-05-21T13:38:38;8.23;;;7.23;;
3487;SDS011;38546;48.170;11.724;2023-05-21T13:41:28;9.83;;;7.47;;
3487;SDS011;38546;48.170;11.724;2023-05-21T13:44:17;11.80;;;7.80;;
3487;SDS011;38546;48.170;11.724;2023-05-21T13:47:07;12.27;;;8.20;;
3487;SDS011;38546;48.170;11.724;2023-05-21T13:49:58;9.23;;;7.80;;
3487;SDS011;38546;48.170;11.724;2023-05-21T13:52:48;10.20;;;7.87;;
3487;SDS011;38546;48.170;11.724;2023-05-21T13:55:37;9.00;;;7.43;;
3487;SDS011;38546;48.170;11.724;2023-05-21T13:58:26;11.33;;;7.17;;
3487;SDS011;38546;48.170;11.724;2023-05-21T14:01:16;10.07;;;7.83;;
3487;SDS011;38546;48.170;11.724;2023-05-21T14:04:05;8.73;;;7.43;;
3487;SDS011;38546;48.170;11.724;2023-05-21T14:06:55;7.90;;;7.10;;
3487;SDS011;38546;48.170;11.724;2023-05-21T14:09:44;8.73;;;7.13;;
3487;SDS011;38546;48.170;11.724;2023-05-21T14:12:35;8.80;;;7.10;;
3487;SDS011;38546;48.170;11.724;2023-05-21T14:15:25;9.27;;;7.13;;
3487;SDS011;38546;48.170;11.724;2023-05-21T14:18:15;9.07;;;7.43;;
3487;SDS011;38546;48.170;11.724;2023-05-21T14:21:04;10.00;;;8.00;;
3487;SDS011;38546;48.170;11.724;2023-05-21T14:23:54;8.10;;;6.60;;
3487;SDS011;38546;48.170;11.724;2023-05-21T14:26:43;7.57;;;6.77;;
3487;SDS011;38546;48.170;11.724;2023-05-21T14:29:33;10.53;;;7.43;;
3487;SDS011;38546;48.170;11.724;2023-05-21T14:32:22;9.60;;;7.80;;
3487;SDS011;38546;48.170;11.724;2023-05-21T14:35:11;11.97;;;7.30;;
3487;SDS011;38546;48.170;11.724;2023-05-21T14:38:00;10.83;;;8.07;;
3487;SDS011;38546;48.170;11.724;2023-05-21T14:40:50;7.70;;;6.90;;
3487;SDS011;38546;48.170;11.724;2023-05-21T14:43:39;10.23;;;7.70;;
3487;SDS011;38546;48.170;11.724;2023-05-21T14:46:29;8.77;;;6.97;;
3487;SDS011;38546;48.170;11.724;2023-05-21T14:49:18;8.60;;;6.53;;
3487;SDS011;38546;48.170;11.724;2023-05-21T14:52:07;11.13;;;7.77;;
3487;SDS011;38546;48.170;11.724;2023-05-21T14:54:57;8.23;;;7.40;;
3487;SDS011;38546;48.170;11.724;2023-05-21T14:57:46;7.50;;;6.50;;
3487;SDS011;38546;48.170;11.724;2023-05-21T15:00:36;8.00;;;6.87;;
3487;SDS011;38546;48.170;11.724;2023-05-21T15:03:26;8.00;;;7.00;;
3487;SDS011;38546;48.170;11.724;2023-05-21T15:06:15;8.43;;;7.00;;
3487;SDS011;38546;48.170;11.724;2023-05-21T15:09:04;7.40;;;6.53;;
3487;SDS011;38546;48.170;11.724;2023-05-21T15:11:54;8.17;;;6.70;;
3487;SDS011;38546;48.170;11.724;2023-05-21T15:14:43;10.23;;;7.30;;
3487;SDS011;38546;48.170;11.724;2023-05-21T15:17:33;9.77;;;7.00;;
3487;SDS011;38546;48.170;11.724;2023-05-21T15:20:23;10.47;;;7.57;;
3487;SDS011;38546;48.170;11.724;2023-05-21T15:23:12;10.63;;;7.90;;
3487;SDS011;38546;48.170;11.724;2023-05-21T15:26:01;11.07;;;7.83;;
3487;SDS011;38546;48.170;11.724;2023-05-21T15:28:51;7.10;;;6.30;;
3487;SDS011;38546;48.170;11.724;2023-05-21T15:31:40;12.37;;;7.03;;
3487;SDS011;38546;48.170;11.724;2023-05-21T15:34:29;7.70;;;6.40;;
3487;SDS011;38546;48.170;11.724;2023-05-21T15:37:20;7.77;;;6.80;;
3487;SDS011;38546;48.170;11.724;2023-05-21T15:40:10;8.23;;;7.37;;
3487;SDS011;38546;48.170;11.724;2023-05-21T15:43:00;7.73;;;6.93;;
3487;SDS011;38546;48.170;11.724;2023-05-21T15:45:48;8.63;;;6.30;;
3487;SDS011;38546;48.170;11.724;2023-05-21T15:48:38;8.63;;;7.77;;
3487;SDS011;38546;48.170;11.724;2023-05-21T15:51:27;7.90;;;6.90;;
3487;SDS011;38546;48.170;11.724;2023-05-21T15:54:16;12.23;;;6.20;;
3487;SDS011;38546;48.170;11.724;2023-05-21T15:57:05;7.50;;;6.70;;
3487;SDS011;38546;48.170;11.724;2023-05-21T15:59:54;7.50;;;6.47;;
3487;SDS011;38546;48.170;11.724;2023-05-21T16:02:43;7.53;;;6.57;;
3487;SDS011;38546;48.170;11.724;2023-05-21T16:05:32;8.33;;;6.80;;
3487;SDS011;38546;48.170;11.724;2023-05-21T16:08:21;9.17;;;6.70;;
3487;SDS011;38546;48.170;11.724;2023-05-21T16:11:10;9.87;;;6.77;;
3487;SDS011;38546;48.170;11.724;2023-05-21T16:14:00;7.90;;;6.80;;
3487;SDS011;38546;48.170;11.724;2023-05-21T16:16:49;8.40;;;6.40;;
3487;SDS011;38546;48.170;11.724;2023-05-21T16:19:38;7.70;;;6.80;;
3487;SDS011;38546;48.170;11.724;2023-05-21T16:22:27;7.33;;;6.50;;
3487;SDS011;38546;48.170;11.724;2023-05-21T16:25:16;7.10;;;5.90;;
3487;SDS011;38546;48.170;11.724;2023-05-21T16:28:05;7.70;;;6.67;;
3487;SDS011;38546;48.170;11.724;2023-05-21T16:30:55;7.27;;;6.47;;
3487;SDS011;38546;48.170;11.724;2023-05-21T16:33:43;6.33;;;5.73;;
3487;SDS011;38546;48.170;11.724;2023-05-21T16:36:32;8.83;;;6.40;;
3487;SDS011;38546;48.170;11.724;2023-05-21T16:39:22;7.13;;;6.43;;
3487;SDS011;38546;48.170;11.724;2023-05-21T16:42:11;7.77;;;6.90;;
3487;SDS011;38546;48.170;11.724;2023-05-21T16:45:00;7.33;;;6.57;;
3487;SDS011;38546;48.170;11.724;2023-05-21T16:47:49;8.47;;;6.50;;
3487;SDS011;38546;48.170;11.724;2023-05-21T16:50:39;9.27;;;6.13;;
3487;SDS011;38546;48.170;11.724;2023-05-21T16:53:28;7.13;;;6.00;;
3487;SDS011;38546;48.170;11.724;2023-05-21T16:56:17;7.33;;;5.97;;
3487;SDS011;38546;48.170;11.724;2023-05-21T16:59:06;6.20;;;5.60;;
3487;SDS011;38546;48.170;11.724;2023-05-21T17:01:55;6.03;;;5.43;;
3487;SDS011;38546;48.170;11.724;2023-05-21T17:04:45;7.97;;;6.60;;
3487;SDS011;38546;48.170;11.724;2023-05-21T17:07:35;8.60;;;6.33;;
3487;SDS011;38546;48.170;11.724;2023-05-21T17:10:24;9.23;;;6.20;;